Time;durP1;ratioP1;P1;durP2;ratioP2;P2;SDS_P1;SDS_P2;PMS_P1;PMS_P2;Temp;Humidity;BMP_temperature;BMP_pressure;BME280_temperature;BME280_humidity;BME280_pressure;Samples;Min_cycle;Max_cycle;Signal;HPM_P1;HPM_P2
2023/06/20 00:01:23;;;;;;;14.60;10.23;;;;;;;;;;4968990;28;20053;-59
2023/06/20 00:03:49;;;;;;;12.20;9.25;;;;;;;;;;4968201;28;20096;-60
2023/06/20 00:06:15;;;;;;;13.52;10.27;;;;;;;;;;4967500;28;20041;-60
2023/06/20 00:08:41;;;;;;;14.32;9.85;;;;;;;;;;4966505;28;20042;-60
2023/06/20 00:11:07;;;;;;;12.77;10.07;;;;;;;;;;4967585;28;20042;-59
2023/06/20 00:13:34;;;;;;;13.77;9.55;;;;;;;;;;4966112;28;20049;-60
2023/06/20 00:16:01;;;;;;;12.75;9.77;;;;;;;;;;4966680;28;20039;-60
2023/06/20 00:18:27;;;;;;;16.90;10.00;;;;;;;;;;4966637;28;20224;-60
2023/06/20 00:20:55;;;;;;;12.13;9.75;;;;;;;;;;4968642;28;20050;-60
2023/06/20 00:23:24;;;;;;;13.00;9.70;;;;;;;;;;4965664;28;20068;-60
2023/06/20 00:25:50;;;;;;;15.70;9.65;;;;;;;;;;4967394;28;20058;-60
2023/06/20 00:28:17;;;;;;;12.63;9.75;;;;;;;;;;4967860;28;20500;-60
2023/06/20 00:30:44;;;;;;;14.68;10.93;;;;;;;;;;4967101;28;20477;-60
2023/06/20 00:33:10;;;;;;;14.88;10.43;;;;;;;;;;4967005;28;20022;-60
2023/06/20 00:35:36;;;;;;;17.85;11.25;;;;;;;;;;4967574;28;20044;-59
2023/06/20 00:38:02;;;;;;;14.55;11.38;;;;;;;;;;4967840;28;20076;-60
2023/06/20 00:40:28;;;;;;;15.57;11.50;;;;;;;;;;4965881;28;20121;-60
2023/06/20 00:42:54;;;;;;;13.90;11.07;;;;;;;;;;4965675;28;20030;-60
2023/06/20 00:45:28;;;;;;;15.82;12.18;;;;;;;;;;4967474;28;20066;-59
2023/06/20 00:47:55;;;;;;;18.65;13.77;;;;;;;;;;4967713;28;20165;-59
2023/06/20 00:50:26;;;;;;;16.77;12.57;;;;;;;;;;4967141;28;20034;-60
2023/06/20 00:52:54;;;;;;;17.35;12.35;;;;;;;;;;4966825;28;20041;-59
2023/06/20 00:55:21;;;;;;;16.75;13.10;;;;;;;;;;4967018;28;20030;-59
2023/06/20 00:57:48;;;;;;;23.35;12.48;;;;;;;;;;4967705;28;20048;-59
2023/06/20 01:00:15;;;;;;;16.73;12.80;;;;;;;;;;4965237;28;20084;-60
2023/06/20 01:02:46;;;;;;;16.88;11.82;;;;;;;;;;4968410;28;20072;-60
2023/06/20 01:05:13;;;;;;;18.27;12.32;;;;;;;;;;4968212;28;20034;-59
2023/06/20 01:07:42;;;;;;;16.15;11.43;;;;;;;;;;4967298;28;20038;-59
2023/06/20 01:10:25;;;;;;;18.27;11.93;;;;;;;;;;4968430;28;20432;-60
2023/06/20 01:12:59;;;;;;;16.65;12.02;;;;;;;;;;4967544;28;20033;-59
2023/06/20 01:15:45;;;;;;;18.20;11.18;;;;;;;;;;4966818;28;20031;-59
2023/06/20 01:18:16;;;;;;;15.57;11.90;;;;;;;;;;4968730;28;20053;-59
2023/06/20 01:20:44;;;;;;;18.38;12.07;;;;;;;;;;4970642;28;20041;-59
2023/06/20 01:23:45;;;;;;;16.77;12.13;;;;;;;;;;4970790;28;20085;-59
2023/06/20 01:26:20;;;;;;;15.18;11.32;;;;;;;;;;4956095;28;20556;-59
2023/06/20 01:29:25;;;;;;;15.60;12.00;;;;;;;;;;4969409;28;20076;-59
2023/06/20 01:31:54;;;;;;;16.00;11.30;;;;;;;;;;4988201;28;20044;-59
2023/06/20 01:34:22;;;;;;;15.02;10.80;;;;;;;;;;4985140;28;20036;-59
2023/06/20 01:36:50;;;;;;;17.20;12.20;;;;;;;;;;4999300;28;20069;-59
2023/06/20 01:39:19;;;;;;;14.93;11.07;;;;;;;;;;4970555;28;20029;-60
2023/06/20 01:41:46;;;;;;;18.38;11.77;;;;;;;;;;4970740;28;20038;-60
2023/06/20 01:44:15;;;;;;;17.60;12.90;;;;;;;;;;4971575;28;20124;-59
2023/06/20 01:46:41;;;;;;;15.07;12.10;;;;;;;;;;4970521;28;20508;-60
2023/06/20 01:49:09;;;;;;;16.48;12.40;;;;;;;;;;4970084;28;20041;-60
2023/06/20 01:51:35;;;;;;;18.10;12.98;;;;;;;;;;4970326;28;20026;-60
2023/06/20 01:54:05;;;;;;;17.20;12.60;;;;;;;;;;4969147;28;20043;-59
2023/06/20 01:56:32;;;;;;;17.50;11.52;;;;;;;;;;4967611;28;20049;-59
2023/06/20 01:59:00;;;;;;;14.35;10.55;;;;;;;;;;4968367;28;20030;-59
2023/06/20 02:01:26;;;;;;;14.63;11.07;;;;;;;;;;4968176;28;20033;-59
2023/06/20 02:03:55;;;;;;;15.60;11.27;;;;;;;;;;4973461;28;20057;-60
2023/06/20 02:06:22;;;;;;;15.32;10.43;;;;;;;;;;4968481;28;20053;-59
2023/06/20 02:08:49;;;;;;;18.13;11.30;;;;;;;;;;4969432;28;20046;-60
2023/06/20 02:11:15;;;;;;;15.27;9.63;;;;;;;;;;4969501;28;20661;-59
2023/06/20 02:13:42;;;;;;;13.85;9.18;;;;;;;;;;4970497;28;21836;-59
2023/06/20 02:16:09;;;;;;;12.90;9.40;;;;;;;;;;4969371;28;20034;-59
2023/06/20 02:18:36;;;;;;;17.30;10.40;;;;;;;;;;4969339;28;21989;-59
2023/06/20 02:21:05;;;;;;;13.85;8.95;;;;;;;;;;4969365;28;20042;-59
2023/06/20 02:23:33;;;;;;;13.23;8.93;;;;;;;;;;4968516;28;20026;-59
2023/06/20 02:26:09;;;;;;;11.52;8.90;;;;;;;;;;4970297;28;20034;-59
2023/06/20 02:28:49;;;;;;;13.63;8.70;;;;;;;;;;4970457;28;20056;-59
2023/06/20 02:31:20;;;;;;;13.25;8.85;;;;;;;;;;4969743;28;20034;-59
2023/06/20 02:33:47;;;;;;;13.50;9.45;;;;;;;;;;4971064;28;20563;-59
2023/06/20 02:36:14;;;;;;;12.43;8.40;;;;;;;;;;4969149;28;20030;-59
2023/06/20 02:38:40;;;;;;;15.98;8.02;;;;;;;;;;4970071;28;20037;-59
2023/06/20 02:41:06;;;;;;;13.50;8.85;;;;;;;;;;4969870;28;20037;-59
2023/06/20 02:43:32;;;;;;;14.02;8.23;;;;;;;;;;4969845;28;20039;-59
2023/06/20 02:46:10;;;;;;;13.65;8.73;;;;;;;;;;4969285;28;20040;-59
2023/06/20 02:48:40;;;;;;;13.20;8.75;;;;;;;;;;4971649;28;20129;-59
2023/06/20 02:51:08;;;;;;;14.40;8.45;;;;;;;;;;4970842;28;20033;-59
2023/06/20 02:53:42;;;;;;;13.18;8.30;;;;;;;;;;4973724;28;20986;-59
2023/06/20 02:56:10;;;;;;;13.38;8.60;;;;;;;;;;4976781;28;20064;-59
2023/06/20 02:58:38;;;;;;;14.93;9.10;;;;;;;;;;4976429;28;20497;-60
2023/06/20 03:01:04;;;;;;;10.63;8.63;;;;;;;;;;4977339;28;20120;-59
2023/06/20 03:03:37;;;;;;;13.95;9.30;;;;;;;;;;4977627;28;20085;-59
2023/06/20 03:06:06;;;;;;;13.15;8.75;;;;;;;;;;4977307;28;20076;-59
2023/06/20 03:08:33;;;;;;;15.63;9.20;;;;;;;;;;4977105;28;20026;-59
2023/06/20 03:10:59;;;;;;;15.15;9.80;;;;;;;;;;4976450;28;20030;-59
2023/06/20 03:13:25;;;;;;;12.38;8.40;;;;;;;;;;4977159;28;20955;-60
2023/06/20 03:15:51;;;;;;;14.70;9.55;;;;;;;;;;4977277;28;20046;-59
2023/06/20 03:18:18;;;;;;;14.68;9.13;;;;;;;;;;4975569;28;20041;-59
2023/06/20 03:20:48;;;;;;;12.98;9.20;;;;;;;;;;4977433;28;20049;-59
2023/06/20 03:23:14;;;;;;;15.73;10.00;;;;;;;;;;4976684;28;20045;-59
2023/06/20 03:25:40;;;;;;;13.32;9.48;;;;;;;;;;4976637;28;20073;-60
2023/06/20 03:28:07;;;;;;;13.77;9.35;;;;;;;;;;4977296;28;20072;-59
2023/06/20 03:30:33;;;;;;;13.25;9.43;;;;;;;;;;4977266;28;20027;-59
2023/06/20 03:32:59;;;;;;;17.20;9.43;;;;;;;;;;4976399;28;20037;-59
2023/06/20 03:35:25;;;;;;;14.23;9.55;;;;;;;;;;4975869;28;21461;-60
2023/06/20 03:37:51;;;;;;;12.35;8.75;;;;;;;;;;4977489;28;20099;-59
2023/06/20 03:40:17;;;;;;;15.65;9.88;;;;;;;;;;4974217;28;20045;-59
2023/06/20 03:42:43;;;;;;;14.25;8.90;;;;;;;;;;4974717;28;20030;-59
2023/06/20 03:45:09;;;;;;;14.25;9.43;;;;;;;;;;4975153;28;20030;-60
2023/06/20 03:47:35;;;;;;;12.18;8.30;;;;;;;;;;4976141;28;20130;-60
2023/06/20 03:50:02;;;;;;;14.32;9.18;;;;;;;;;;4975852;28;20042;-59
2023/06/20 03:52:28;;;;;;;11.63;9.32;;;;;;;;;;4976711;28;20591;-59
2023/06/20 03:54:54;;;;;;;11.40;8.75;;;;;;;;;;4975048;28;20903;-59
2023/06/20 03:57:20;;;;;;;10.98;8.10;;;;;;;;;;4976185;28;21852;-59
2023/06/20 03:59:46;;;;;;;11.70;8.25;;;;;;;;;;4976724;28;21273;-60
2023/06/20 04:02:12;;;;;;;12.57;8.90;;;;;;;;;;4976532;28;20683;-59
2023/06/20 04:04:38;;;;;;;16.60;10.15;;;;;;;;;;4974226;28;20037;-60
2023/06/20 04:07:05;;;;;;;13.00;9.90;;;;;;;;;;4973334;28;20026;-59
2023/06/20 04:09:31;;;;;;;12.75;8.95;;;;;;;;;;4974804;28;20084;-60
2023/06/20 04:11:57;;;;;;;13.40;8.73;;;;;;;;;;4975552;28;20542;-59
2023/06/20 04:14:23;;;;;;;16.08;9.05;;;;;;;;;;4974736;28;20033;-60
2023/06/20 04:16:49;;;;;;;11.35;8.70;;;;;;;;;;4974812;28;20033;-60
2023/06/20 04:19:16;;;;;;;13.13;8.88;;;;;;;;;;4975715;28;20096;-59
2023/06/20 04:21:42;;;;;;;13.10;9.38;;;;;;;;;;4975318;28;20442;-59
2023/06/20 04:24:08;;;;;;;13.02;9.27;;;;;;;;;;4973668;28;20026;-60
2023/06/20 04:26:37;;;;;;;10.20;8.27;;;;;;;;;;4974517;28;20595;-60
2023/06/20 04:29:03;;;;;;;11.75;8.98;;;;;;;;;;4975647;28;20826;-59
2023/06/20 04:31:29;;;;;;;11.35;8.68;;;;;;;;;;4977082;28;20117;-59
2023/06/20 04:33:59;;;;;;;13.45;9.05;;;;;;;;;;4975471;28;20092;-60
2023/06/20 04:36:26;;;;;;;10.65;7.85;;;;;;;;;;4974559;28;20647;-60
2023/06/20 04:38:53;;;;;;;14.27;9.25;;;;;;;;;;4975507;28;20046;-59
2023/06/20 04:41:19;;;;;;;11.52;8.10;;;;;;;;;;4975808;28;20492;-60
2023/06/20 04:43:45;;;;;;;10.02;7.32;;;;;;;;;;4977324;28;20031;-59
2023/06/20 04:46:15;;;;;;;10.63;8.18;;;;;;;;;;4975096;28;20092;-59
2023/06/20 04:48:41;;;;;;;12.63;9.40;;;;;;;;;;4977340;28;20037;-59
2023/06/20 04:51:08;;;;;;;11.35;7.95;;;;;;;;;;4963944;28;20030;-59
2023/06/20 04:53:34;;;;;;;12.63;9.02;;;;;;;;;;4981026;28;20125;-59
2023/06/20 04:56:00;;;;;;;13.90;8.00;;;;;;;;;;4979677;28;21324;-59
2023/06/20 04:58:28;;;;;;;11.43;8.48;;;;;;;;;;4980774;28;20040;-59
2023/06/20 05:00:57;;;;;;;12.25;8.05;;;;;;;;;;4978431;28;20195;-59
2023/06/20 05:03:23;;;;;;;15.43;8.18;;;;;;;;;;4979422;28;20038;-60
2023/06/20 05:05:50;;;;;;;12.60;8.75;;;;;;;;;;4979497;28;20140;-59
2023/06/20 05:08:16;;;;;;;11.93;8.35;;;;;;;;;;4979747;28;20026;-59
2023/06/20 05:10:42;;;;;;;11.88;8.23;;;;;;;;;;4979698;28;20038;-60
2023/06/20 05:13:08;;;;;;;10.18;7.60;;;;;;;;;;4979461;28;20057;-59
2023/06/20 05:15:34;;;;;;;11.15;8.27;;;;;;;;;;4980213;28;20326;-60
2023/06/20 05:18:00;;;;;;;10.05;7.80;;;;;;;;;;4979334;28;20072;-59
2023/06/20 05:20:26;;;;;;;13.23;7.90;;;;;;;;;;4979792;28;20060;-60
2023/06/20 05:22:52;;;;;;;12.85;8.38;;;;;;;;;;4967627;28;20121;-59
2023/06/20 05:25:18;;;;;;;12.23;8.40;;;;;;;;;;4980221;28;20220;-59
2023/06/20 05:27:46;;;;;;;13.57;8.45;;;;;;;;;;4979303;28;20029;-60
2023/06/20 05:30:12;;;;;;;15.80;7.95;;;;;;;;;;4979964;28;20069;-59
2023/06/20 05:32:38;;;;;;;13.18;8.40;;;;;;;;;;4979459;28;20048;-59
2023/06/20 05:35:05;;;;;;;10.98;8.13;;;;;;;;;;4979558;28;20042;-59
2023/06/20 05:37:31;;;;;;;12.95;8.40;;;;;;;;;;4979005;28;21939;-60
2023/06/20 05:39:58;;;;;;;13.30;7.90;;;;;;;;;;4980024;28;21141;-59
2023/06/20 05:42:24;;;;;;;12.18;8.73;;;;;;;;;;4978876;28;20030;-59
2023/06/20 05:44:50;;;;;;;12.40;8.43;;;;;;;;;;4979985;28;20081;-59
2023/06/20 05:47:20;;;;;;;12.00;8.25;;;;;;;;;;4977626;28;20033;-59
2023/06/20 05:49:46;;;;;;;12.13;8.60;;;;;;;;;;4978723;28;20034;-59
2023/06/20 05:52:12;;;;;;;12.57;8.38;;;;;;;;;;4978382;28;20030;-59
2023/06/20 05:54:38;;;;;;;13.50;8.77;;;;;;;;;;4978443;28;20394;-60
2023/06/20 05:57:08;;;;;;;10.10;8.07;;;;;;;;;;4979186;28;21940;-59
2023/06/20 05:59:34;;;;;;;22.08;9.45;;;;;;;;;;4978244;28;20030;-60
2023/06/20 06:02:00;;;;;;;12.73;9.45;;;;;;;;;;4977745;28;20030;-59
2023/06/20 06:04:26;;;;;;;12.57;8.18;;;;;;;;;;4977736;28;20030;-60
2023/06/20 06:06:52;;;;;;;11.32;8.77;;;;;;;;;;4978632;28;20030;-60
2023/06/20 06:09:19;;;;;;;11.68;9.02;;;;;;;;;;4978576;28;20039;-59
2023/06/20 06:11:45;;;;;;;14.38;9.23;;;;;;;;;;4978456;28;20383;-60
2023/06/20 06:14:12;;;;;;;11.45;8.20;;;;;;;;;;4977315;28;20038;-60
2023/06/20 06:16:38;;;;;;;13.20;9.50;;;;;;;;;;4976264;28;20056;-60
2023/06/20 06:19:04;;;;;;;14.65;8.90;;;;;;;;;;4977193;28;20039;-60
2023/06/20 06:21:30;;;;;;;17.52;9.93;;;;;;;;;;4978448;28;20085;-59
2023/06/20 06:23:56;;;;;;;13.93;9.77;;;;;;;;;;4977545;28;20112;-60
2023/06/20 06:26:22;;;;;;;12.48;8.88;;;;;;;;;;4977656;28;20026;-59
2023/06/20 06:28:49;;;;;;;13.75;9.23;;;;;;;;;;4977778;28;20135;-59
2023/06/20 06:31:18;;;;;;;14.40;10.10;;;;;;;;;;4976923;28;20046;-60
2023/06/20 06:33:44;;;;;;;15.95;9.77;;;;;;;;;;4976620;28;20083;-59
2023/06/20 06:36:11;;;;;;;14.25;10.32;;;;;;;;;;4978299;28;20034;-59
2023/06/20 06:38:37;;;;;;;12.85;8.95;;;;;;;;;;4966494;28;20041;-59
2023/06/20 06:41:04;;;;;;;14.88;10.20;;;;;;;;;;4978320;28;20038;-60
2023/06/20 06:43:30;;;;;;;16.40;10.45;;;;;;;;;;4977505;28;20030;-59
2023/06/20 06:45:56;;;;;;;13.75;9.95;;;;;;;;;;4978314;28;20022;-60
2023/06/20 06:48:22;;;;;;;13.70;9.93;;;;;;;;;;4977180;28;20038;-60
2023/06/20 06:50:49;;;;;;;16.92;10.68;;;;;;;;;;4977215;28;20046;-59
2023/06/20 06:53:15;;;;;;;13.90;10.13;;;;;;;;;;5007370;28;20519;-59
2023/06/20 06:55:47;;;;;;;14.68;10.05;;;;;;;;;;4977801;28;20034;-59
2023/06/20 06:58:13;;;;;;;15.18;10.60;;;;;;;;;;4977498;28;20042;-60
2023/06/20 07:00:39;;;;;;;11.82;9.65;;;;;;;;;;4978137;28;20069;-59
2023/06/20 07:03:08;;;;;;;14.82;10.70;;;;;;;;;;4977773;28;20145;-60
2023/06/20 07:05:34;;;;;;;11.93;9.80;;;;;;;;;;4977482;28;20045;-60
2023/06/20 07:08:00;;;;;;;13.98;10.60;;;;;;;;;;4974479;28;20052;-59
2023/06/20 07:10:26;;;;;;;11.63;9.93;;;;;;;;;;4965896;28;20065;-59
2023/06/20 07:12:52;;;;;;;16.05;11.15;;;;;;;;;;4968187;28;20633;-60
2023/06/20 07:15:18;;;;;;;16.80;10.57;;;;;;;;;;4968767;28;20080;-59
2023/06/20 07:17:44;;;;;;;13.05;10.30;;;;;;;;;;4969815;28;20124;-59
2023/06/20 07:20:10;;;;;;;12.82;8.90;;;;;;;;;;4969589;28;20058;-59
2023/06/20 07:22:37;;;;;;;13.70;10.00;;;;;;;;;;4968946;28;20030;-60
2023/06/20 07:25:03;;;;;;;16.25;11.05;;;;;;;;;;4969565;28;20746;-60
2023/06/20 07:27:30;;;;;;;12.13;9.68;;;;;;;;;;4969128;28;20038;-60
2023/06/20 07:29:56;;;;;;;12.20;9.48;;;;;;;;;;4969996;28;20036;-60
2023/06/20 07:32:22;;;;;;;13.57;10.55;;;;;;;;;;4970597;28;20038;-59
2023/06/20 07:34:48;;;;;;;13.05;9.48;;;;;;;;;;4970525;28;20043;-60
2023/06/20 07:37:14;;;;;;;15.90;10.20;;;;;;;;;;4971060;28;20078;-60
2023/06/20 07:39:42;;;;;;;13.40;9.75;;;;;;;;;;4967881;28;20124;-60
2023/06/20 07:42:09;;;;;;;11.45;9.75;;;;;;;;;;4965723;28;20030;-60
2023/06/20 07:44:35;;;;;;;12.45;9.45;;;;;;;;;;4966543;28;20034;-59
2023/06/20 07:47:01;;;;;;;17.42;10.30;;;;;;;;;;4968742;28;20535;-59
2023/06/20 07:49:28;;;;;;;12.73;9.45;;;;;;;;;;4966786;28;20034;-60
2023/06/20 07:51:54;;;;;;;12.60;9.50;;;;;;;;;;4968375;28;20416;-59
2023/06/20 07:54:20;;;;;;;11.73;9.80;;;;;;;;;;4968682;28;21691;-60
2023/06/20 07:56:46;;;;;;;11.38;9.40;;;;;;;;;;4968342;28;21939;-59
2023/06/20 07:59:13;;;;;;;14.50;10.45;;;;;;;;;;4968365;28;20033;-59
2023/06/20 08:01:39;;;;;;;13.80;9.75;;;;;;;;;;4968191;28;20039;-59
2023/06/20 08:04:05;;;;;;;13.70;9.98;;;;;;;;;;4967655;28;20030;-59
2023/06/20 08:06:31;;;;;;;14.15;11.07;;;;;;;;;;4967931;28;20038;-59
2023/06/20 08:08:57;;;;;;;13.73;9.43;;;;;;;;;;4968459;28;20165;-59
2023/06/20 08:11:24;;;;;;;13.55;10.23;;;;;;;;;;4968376;28;20046;-59
2023/06/20 08:13:50;;;;;;;12.45;10.57;;;;;;;;;;4969137;28;20038;-59
2023/06/20 08:16:16;;;;;;;11.48;9.15;;;;;;;;;;4967950;28;20088;-60
2023/06/20 08:18:42;;;;;;;11.40;8.95;;;;;;;;;;4967466;28;20920;-59
2023/06/20 08:21:08;;;;;;;14.77;9.88;;;;;;;;;;4965431;28;20066;-59
2023/06/20 08:23:34;;;;;;;11.57;9.30;;;;;;;;;;4965720;28;20084;-59
2023/06/20 08:26:00;;;;;;;12.00;9.02;;;;;;;;;;4967024;28;20698;-59
2023/06/20 08:28:26;;;;;;;12.90;9.52;;;;;;;;;;4967400;28;20116;-59
2023/06/20 08:30:53;;;;;;;11.35;9.85;;;;;;;;;;4967566;28;20038;-58
2023/06/20 08:33:20;;;;;;;12.93;9.27;;;;;;;;;;4968177;28;20045;-59
2023/06/20 08:35:50;;;;;;;13.00;9.30;;;;;;;;;;4965946;28;20035;-59
2023/06/20 08:38:16;;;;;;;13.35;8.70;;;;;;;;;;4966688;28;20040;-59
2023/06/20 08:40:43;;;;;;;11.43;8.80;;;;;;;;;;4967630;28;20055;-59
2023/06/20 08:43:13;;;;;;;12.75;9.48;;;;;;;;;;4966539;28;20047;-59
2023/06/20 08:45:39;;;;;;;13.98;10.10;;;;;;;;;;4964223;28;20085;-59
2023/06/20 08:48:05;;;;;;;13.25;9.98;;;;;;;;;;4963670;28;20044;-59
2023/06/20 08:50:32;;;;;;;12.40;9.63;;;;;;;;;;4963689;28;20035;-59
2023/06/20 08:53:01;;;;;;;13.63;9.45;;;;;;;;;;4965283;28;20038;-59
2023/06/20 08:55:30;;;;;;;14.55;8.63;;;;;;;;;;4963369;28;20031;-59
2023/06/20 08:57:56;;;;;;;12.00;9.13;;;;;;;;;;4966326;28;20044;-59
2023/06/20 09:00:23;;;;;;;10.77;8.63;;;;;;;;;;4964454;28;20045;-59
2023/06/20 09:02:53;;;;;;;11.23;8.35;;;;;;;;;;4966680;28;20105;-59
2023/06/20 09:05:19;;;;;;;9.88;8.43;;;;;;;;;;4965047;28;20035;-59
2023/06/20 09:07:45;;;;;;;13.63;9.90;;;;;;;;;;4964039;28;20681;-59
2023/06/20 09:10:16;;;;;;;11.60;9.95;;;;;;;;;;4966539;28;20053;-59
2023/06/20 09:12:46;;;;;;;14.52;10.07;;;;;;;;;;4966810;28;20125;-59
2023/06/20 09:15:22;;;;;;;11.52;9.43;;;;;;;;;;4966339;28;20022;-59
2023/06/20 09:17:52;;;;;;;13.23;9.18;;;;;;;;;;4966154;28;20056;-59
2023/06/20 09:20:18;;;;;;;10.73;8.90;;;;;;;;;;4963667;28;21522;-59
2023/06/20 09:22:44;;;;;;;11.52;9.35;;;;;;;;;;4965591;28;20113;-59
2023/06/20 09:25:11;;;;;;;12.35;8.68;;;;;;;;;;4963110;28;21006;-59
2023/06/20 09:27:38;;;;;;;10.07;7.93;;;;;;;;;;4964342;28;20064;-60
2023/06/20 09:30:05;;;;;;;12.02;8.93;;;;;;;;;;4964037;28;20065;-59
2023/06/20 09:32:39;;;;;;;15.25;8.95;;;;;;;;;;4965391;28;20479;-59
2023/06/20 09:35:07;;;;;;;11.02;8.00;;;;;;;;;;4964524;28;20076;-59
2023/06/20 09:37:39;;;;;;;11.55;7.93;;;;;;;;;;4965291;28;20586;-59
2023/06/20 09:40:10;;;;;;;8.95;7.43;;;;;;;;;;4968668;28;20041;-59
2023/06/20 09:42:36;;;;;;;9.05;7.65;;;;;;;;;;4969892;28;20165;-60
2023/06/20 09:45:02;;;;;;;11.82;7.82;;;;;;;;;;4968977;28;20026;-59
2023/06/20 09:47:29;;;;;;;10.23;7.88;;;;;;;;;;4969177;28;20030;-59
2023/06/20 09:49:58;;;;;;;11.18;8.27;;;;;;;;;;4970832;28;20954;-59
2023/06/20 09:52:33;;;;;;;9.75;7.22;;;;;;;;;;4969534;28;20380;-59
2023/06/20 09:55:03;;;;;;;9.25;7.78;;;;;;;;;;4967715;28;20034;-59
2023/06/20 09:57:34;;;;;;;9.13;7.00;;;;;;;;;;4969614;28;21178;-59
2023/06/20 10:00:01;;;;;;;11.82;7.50;;;;;;;;;;4968616;28;20022;-59
2023/06/20 10:02:28;;;;;;;9.50;7.05;;;;;;;;;;4970065;28;20158;-59
2023/06/20 10:04:55;;;;;;;8.77;6.90;;;;;;;;;;4969455;28;20033;-59
2023/06/20 10:07:22;;;;;;;10.38;6.75;;;;;;;;;;4968831;28;20034;-59
2023/06/20 10:09:49;;;;;;;10.88;7.15;;;;;;;;;;4968922;28;20061;-59
2023/06/20 10:12:16;;;;;;;9.77;6.72;;;;;;;;;;4969536;28;20034;-59
2023/06/20 10:14:42;;;;;;;9.02;7.55;;;;;;;;;;4969540;28;20035;-59
2023/06/20 10:17:09;;;;;;;7.57;6.20;;;;;;;;;;4968902;28;20026;-59
2023/06/20 10:20:07;;;;;;;8.35;6.68;;;;;;;;;;4969327;28;20033;-59
2023/06/20 10:22:34;;;;;;;9.88;6.72;;;;;;;;;;4963737;28;20049;-59
2023/06/20 10:25:19;;;;;;;8.50;6.55;;;;;;;;;;4966723;28;20041;-59
2023/06/20 10:27:54;;;;;;;9.63;6.53;;;;;;;;;;4966944;28;20026;-59
2023/06/20 10:30:39;;;;;;;11.43;6.97;;;;;;;;;;4966441;28;20563;-59
2023/06/20 10:33:07;;;;;;;7.28;5.70;;;;;;;;;;4968565;28;20559;-59
2023/06/20 10:35:33;;;;;;;13.15;6.50;;;;;;;;;;4969844;28;21162;-59
2023/06/20 10:38:08;;;;;;;8.98;5.20;;;;;;;;;;4973838;28;20068;-59
2023/06/20 10:40:36;;;;;;;8.27;5.95;;;;;;;;;;4970570;28;21132;-59
2023/06/20 10:43:06;;;;;;;8.23;5.57;;;;;;;;;;4969979;28;20031;-59
2023/06/20 10:45:33;;;;;;;10.77;5.50;;;;;;;;;;4969698;28;20035;-59
2023/06/20 10:48:01;;;;;;;7.20;5.28;;;;;;;;;;4968973;28;20034;-59
2023/06/20 10:50:27;;;;;;;7.70;5.57;;;;;;;;;;4969620;28;20030;-59
2023/06/20 10:52:53;;;;;;;7.28;5.45;;;;;;;;;;4968711;28;20088;-59
2023/06/20 10:55:24;;;;;;;7.28;4.88;;;;;;;;;;4970219;28;20034;-59
2023/06/20 10:57:51;;;;;;;7.18;4.97;;;;;;;;;;4970212;28;20534;-59
2023/06/20 11:00:18;;;;;;;7.07;5.38;;;;;;;;;;4970294;28;20046;-59
2023/06/20 11:02:53;;;;;;;9.50;5.50;;;;;;;;;;4966253;28;20026;-59
2023/06/20 11:05:24;;;;;;;9.52;5.28;;;;;;;;;;4970771;28;20044;-59
2023/06/20 11:07:54;;;;;;;6.20;5.03;;;;;;;;;;4968368;28;20077;-59
2023/06/20 11:10:21;;;;;;;7.53;5.07;;;;;;;;;;4968910;28;20608;-59
2023/06/20 11:12:47;;;;;;;7.05;5.07;;;;;;;;;;4969325;28;20031;-59
2023/06/20 11:15:27;;;;;;;9.48;5.22;;;;;;;;;;4968978;28;20782;-60
2023/06/20 11:17:53;;;;;;;7.15;5.05;;;;;;;;;;4968836;28;20034;-59
2023/06/20 11:20:20;;;;;;;9.20;4.93;;;;;;;;;;4968090;28;20046;-59
2023/06/20 11:22:47;;;;;;;6.05;4.82;;;;;;;;;;4968918;28;20515;-60
2023/06/20 11:25:22;;;;;;;9.40;5.18;;;;;;;;;;4967714;28;20030;-60
2023/06/20 11:27:48;;;;;;;8.95;5.20;;;;;;;;;;4968933;28;20069;-60
2023/06/20 11:30:14;;;;;;;7.10;6.00;;;;;;;;;;4968303;28;20038;-60
2023/06/20 11:32:40;;;;;;;7.25;5.28;;;;;;;;;;4968002;28;20049;-59
2023/06/20 11:35:08;;;;;;;8.13;4.95;;;;;;;;;;4968647;28;21140;-60
2023/06/20 11:37:34;;;;;;;7.32;5.80;;;;;;;;;;4968128;28;20060;-59
2023/06/20 11:40:00;;;;;;;8.18;5.63;;;;;;;;;;4968784;28;20117;-60
2023/06/20 11:42:33;;;;;;;7.93;5.57;;;;;;;;;;4968678;28;20034;-59
2023/06/20 11:45:12;;;;;;;7.13;5.05;;;;;;;;;;4968812;28;20026;-59
2023/06/20 11:47:39;;;;;;;9.00;5.65;;;;;;;;;;4967563;28;20041;-59
2023/06/20 11:50:05;;;;;;;7.75;5.78;;;;;;;;;;4969349;28;20485;-60
2023/06/20 11:52:32;;;;;;;7.70;6.40;;;;;;;;;;4968857;28;20618;-60
2023/06/20 11:54:59;;;;;;;8.07;6.00;;;;;;;;;;4968101;28;20121;-59
2023/06/20 11:57:28;;;;;;;7.65;5.68;;;;;;;;;;4968683;28;20034;-57
2023/06/20 11:59:55;;;;;;;7.60;6.05;;;;;;;;;;4966752;28;20030;-58
2023/06/20 12:02:21;;;;;;;8.38;6.00;;;;;;;;;;4968036;28;20044;-58
2023/06/20 12:04:57;;;;;;;7.40;5.43;;;;;;;;;;4968524;28;20026;-58
2023/06/20 12:07:25;;;;;;;8.60;7.15;;;;;;;;;;4968072;28;20058;-57
2023/06/20 12:09:51;;;;;;;7.85;5.70;;;;;;;;;;4966108;28;20085;-57
2023/06/20 12:12:17;;;;;;;7.13;5.53;;;;;;;;;;4966249;28;20030;-58
2023/06/20 12:14:47;;;;;;;8.50;5.28;;;;;;;;;;4965378;28;20117;-57
2023/06/20 12:17:13;;;;;;;8.77;5.15;;;;;;;;;;4965810;28;20113;-58
2023/06/20 12:19:53;;;;;;;7.72;5.30;;;;;;;;;;4970551;28;20035;-58
2023/06/20 12:22:20;;;;;;;8.48;4.97;;;;;;;;;;4969228;28;20089;-58
2023/06/20 12:24:46;;;;;;;9.82;5.70;;;;;;;;;;4970741;28;20037;-58
2023/06/20 12:27:12;;;;;;;8.05;5.25;;;;;;;;;;4970406;28;20026;-58
2023/06/20 12:29:38;;;;;;;7.30;5.35;;;;;;;;;;4968591;28;20022;-58
2023/06/20 12:32:05;;;;;;;8.13;5.72;;;;;;;;;;4969379;28;20675;-58
2023/06/20 12:34:31;;;;;;;9.40;6.25;;;;;;;;;;4969223;28;20046;-58
2023/06/20 12:36:57;;;;;;;8.48;5.68;;;;;;;;;;4967436;28;20038;-57
2023/06/20 12:39:23;;;;;;;9.63;5.85;;;;;;;;;;4968735;28;20121;-58
2023/06/20 12:41:49;;;;;;;8.18;5.82;;;;;;;;;;4967814;28;20122;-58
2023/06/20 12:44:15;;;;;;;8.07;5.97;;;;;;;;;;4968017;28;20034;-58
2023/06/20 12:46:41;;;;;;;6.68;5.30;;;;;;;;;;4969722;28;20097;-60
2023/06/20 12:49:07;;;;;;;7.25;4.93;;;;;;;;;;4970739;28;20049;-60
2023/06/20 12:51:38;;;;;;;5.57;4.50;;;;;;;;;;4970157;28;20053;-60
2023/06/20 12:54:04;;;;;;;7.25;4.75;;;;;;;;;;4970564;28;20034;-60
2023/06/20 12:56:30;;;;;;;7.18;4.47;;;;;;;;;;4968998;28;20096;-60
2023/06/20 12:58:58;;;;;;;6.95;4.00;;;;;;;;;;4968666;28;20034;-60
2023/06/20 13:01:24;;;;;;;5.75;4.32;;;;;;;;;;4969711;28;20501;-60
2023/06/20 13:03:50;;;;;;;5.35;3.72;;;;;;;;;;4970745;28;20041;-60
2023/06/20 13:06:16;;;;;;;6.65;3.90;;;;;;;;;;4968324;28;20038;-60
2023/06/20 13:08:42;;;;;;;10.55;4.60;;;;;;;;;;4969950;28;20038;-60
2023/06/20 13:11:09;;;;;;;8.23;4.60;;;;;;;;;;4970554;28;20033;-60
2023/06/20 13:13:35;;;;;;;6.07;4.30;;;;;;;;;;4971028;28;20034;-60
2023/06/20 13:16:01;;;;;;;7.75;4.45;;;;;;;;;;4973134;28;20420;-60
2023/06/20 13:18:27;;;;;;;5.75;4.60;;;;;;;;;;4980203;28;20121;-60
2023/06/20 13:20:54;;;;;;;5.50;4.10;;;;;;;;;;4973571;28;20152;-60
2023/06/20 13:23:20;;;;;;;7.30;4.88;;;;;;;;;;4975415;28;20142;-60
2023/06/20 13:25:46;;;;;;;6.95;3.92;;;;;;;;;;4974482;28;20038;-60
2023/06/20 13:28:12;;;;;;;6.72;4.63;;;;;;;;;;4973911;28;20038;-60
2023/06/20 13:30:39;;;;;;;6.40;4.50;;;;;;;;;;4975164;28;20428;-60
2023/06/20 13:33:05;;;;;;;8.70;5.55;;;;;;;;;;4974195;28;20049;-60
2023/06/20 13:35:32;;;;;;;8.82;5.25;;;;;;;;;;4974897;28;20042;-60
2023/06/20 13:37:58;;;;;;;6.85;5.07;;;;;;;;;;4974569;28;20431;-60
2023/06/20 13:40:30;;;;;;;6.95;4.82;;;;;;;;;;4973998;28;20026;-60
2023/06/20 13:42:56;;;;;;;6.72;5.13;;;;;;;;;;4974928;28;20564;-60
2023/06/20 13:45:22;;;;;;;7.15;4.95;;;;;;;;;;4974601;28;20625;-60
2023/06/20 13:47:49;;;;;;;6.90;5.13;;;;;;;;;;4972643;28;20038;-60
2023/06/20 13:50:16;;;;;;;7.75;5.47;;;;;;;;;;4978767;28;20031;-60
2023/06/20 13:52:43;;;;;;;8.13;5.38;;;;;;;;;;4974959;28;20019;-60
2023/06/20 13:55:10;;;;;;;7.55;5.45;;;;;;;;;;4974258;28;20046;-60
2023/06/20 13:57:37;;;;;;;9.43;4.85;;;;;;;;;;4975314;28;20026;-60
2023/06/20 14:00:10;;;;;;;6.50;5.32;;;;;;;;;;4973710;28;20080;-60
2023/06/20 14:02:39;;;;;;;6.75;5.25;;;;;;;;;;4974717;28;20038;-60
2023/06/20 14:05:05;;;;;;;8.70;5.03;;;;;;;;;;4971084;28;20113;-60
2023/06/20 14:07:33;;;;;;;6.28;4.50;;;;;;;;;;4974076;28;20062;-60
2023/06/20 14:10:00;;;;;;;5.85;4.30;;;;;;;;;;4973721;28;21749;-60
2023/06/20 14:12:26;;;;;;;7.35;5.00;;;;;;;;;;4962827;28;20061;-60
2023/06/20 14:14:53;;;;;;;5.85;4.20;;;;;;;;;;4977780;28;20045;-59
2023/06/20 14:17:19;;;;;;;6.10;4.55;;;;;;;;;;4973074;28;20116;-60
2023/06/20 14:19:45;;;;;;;6.55;4.90;;;;;;;;;;4972440;28;20049;-58
2023/06/20 14:22:11;;;;;;;7.38;4.28;;;;;;;;;;4972328;28;20053;-58
2023/06/20 14:24:37;;;;;;;8.23;4.75;;;;;;;;;;4972536;28;20492;-58
2023/06/20 14:27:04;;;;;;;6.82;5.00;;;;;;;;;;4985150;28;20041;-58
2023/06/20 14:29:31;;;;;;;7.68;4.95;;;;;;;;;;4971810;28;20038;-60
2023/06/20 14:31:57;;;;;;;9.68;4.35;;;;;;;;;;4971268;28;20041;-60
2023/06/20 14:34:24;;;;;;;7.75;5.10;;;;;;;;;;4970835;28;21001;-60